Attila, Illinois
Current Conditions -  °F | °C
As of 6:55 PM on Friday 28 Nov 2014 (Local Time) from KMWA Reporting Station
Clear Clear  
Wind Chill: 38°   Ceiling: Unl
Heat Index: 45°   Visibility: 10mi
Dew Point: 30°   Wind: 14mph
Humidity: 57%   Direction: 180°S
Pressure: 30.04"   Gusts: NA
Location:  37.7887°N, 88.8655°W
Report Text: KMWA 290055Z AUTO 18012KT 10SM CLR 07/M01 A3004 RMK AO2
Loading
Personal Weather Stations






























Interactive Weather Map New forecast layout! Learn more

10-Day Weather Forecast

Advertisements
Track Severe Weather on mobile